This is the latest recevied weather packets stored in our database for station/object KF7SOJ. If no packets are shown the sender has not sent any weather packets the latest 10 day(s).
| Time | Temp. | Humidity | Pressure | Rain* | Wind** | Luminosity | Snow |
|---|---|---|---|---|---|---|---|
| 1777824332 | 16.67° C | 47% | 930.9 hPa | 0 mm | - | 662 W/m² | - |
| 1777824027 | 16.67° C | 46% | 930.9 hPa | 0 mm | - | 648 W/m² | - |
| 1777821000 | 14.44° C | 51% | 931.3 hPa | 0 mm | - | 482 W/m² | - |
| 1777820392 | 13.89° C | 53% | 931.3 hPa | 0 mm | - | 447 W/m² | - |
| 1777816756 | 10.56° C | 65% | 931.8 hPa | 0 mm | - | 227 W/m² | - |
| 1777811610 | 8.89° C | 72% | 931.6 hPa | 0 mm | - | 30 W/m² | - |
| 1777810700 | 7.78° C | 76% | 931.6 hPa | 0 mm | - | 13 W/m² | - |
| 1777809488 | 7.22° C | 76% | 931.4 hPa | 0 mm | - | 3 W/m² | - |
| 1777808883 | 7.78° C | 77% | 931.6 hPa | 0 mm | - | 1 W/m² | - |
| 1777807370 | 8.89° C | 73% | 931.5 hPa | 0 mm | - | 0 W/m² | - |
| 1777805852 | 8.89° C | 68% | 931.9 hPa | 0 mm | - | 0 W/m² | - |
| 1777804641 | 9.44° C | 65% | 932.3 hPa | 0 mm | - | 0 W/m² | - |
| 1777804340 | 9.44° C | 64% | 932.2 hPa | 0 mm | - | 0 W/m² | - |
| 1777804036 | 9.44° C | 64% | 932.3 hPa | 0 mm | - | 0 W/m² | - |
| 1777803733 | 9.44° C | 64% | 932.4 hPa | 0 mm | - | 0 W/m² | - |
| 1777803126 | 9.44° C | 64% | 932.3 hPa | 0 mm | - | 0 W/m² | - |
| 1777802823 | 8.89° C | 66% | 932.3 hPa | 0 mm | - | 0 W/m² | - |
| 1777802521 | 9.44° C | 64% | 932.2 hPa | 0 mm | - | 0 W/m² | - |
| 1777802219 | 9.44° C | 64% | 932 hPa | 0 mm | - | 0 W/m² | - |
| 1777801917 | 9.44° C | 64% | 931.7 hPa | 0 mm | - | 0 W/m² | - |
| 1777801007 | 10° C | 61% | 931.8 hPa | 0 mm | - | 0 W/m² | - |
| 1777800705 | 10° C | 61% | 932.1 hPa | 0 mm | - | 0 W/m² | - |
| 1777800404 | 10° C | 60% | 931.8 hPa | 0 mm | - | 0 W/m² | - |
| 1777800102 | 10° C | 60% | 931.8 hPa | 0 mm | - | 0 W/m² | - |
| 1777799797 | 10° C | 60% | 932 hPa | 0 mm | - | 0 W/m² | - |
* Rain latest hour (hover to see other rain measurements)
** Current wind speed in m/s (hover to see current wind gust speed)